createdAt,value
2024-02-14T15:59:27.883Z,1.90
2024-02-14T16:04:31.269Z,1.80
2024-02-14T16:09:34.492Z,1.73
2024-02-14T16:14:39.448Z,1.38
2024-02-14T16:19:43.050Z,1.48
2024-02-14T16:24:48.698Z,1.50
2024-02-14T16:29:53.719Z,1.70
2024-02-14T16:34:57.032Z,2.35
2024-02-14T16:40:00.649Z,2.10
2024-02-14T16:45:08.461Z,2.08
2024-02-14T16:50:12.250Z,2.13
2024-02-14T16:55:15.826Z,1.98
2024-02-14T17:00:21.770Z,1.80
2024-02-14T17:05:25.663Z,2.05
2024-02-14T17:10:29.241Z,3.17
2024-02-14T17:15:34.285Z,2.60
2024-02-14T17:20:38.080Z,2.30
2024-02-14T17:25:41.725Z,2.10
2024-02-14T17:30:48.320Z,2.30
2024-02-14T17:35:53.172Z,2.28
2024-02-14T17:40:57.829Z,2.25
2024-02-14T17:46:02.777Z,2.83
2024-02-14T17:51:06.661Z,2.25
2024-02-14T17:56:11.006Z,2.05
2024-02-14T18:01:16.128Z,3.22
2024-02-14T18:06:19.656Z,2.78
2024-02-14T18:11:22.984Z,2.10
2024-02-14T18:16:28.227Z,2.60
2024-02-14T18:21:31.496Z,2.90
2024-02-14T18:26:35.358Z,3.40
2024-02-14T18:31:40.605Z,2.40
2024-02-14T18:36:43.872Z,2.58
2024-02-14T18:41:47.314Z,2.40
2024-02-14T18:46:52.792Z,2.00
2024-02-14T18:56:59.493Z,2.10
2024-02-14T19:02:05.121Z,1.88
2024-02-14T19:12:13.541Z,2.03
2024-02-14T19:17:18.898Z,2.50
2024-02-14T19:22:22.699Z,2.60
2024-02-14T19:27:26.079Z,2.03
2024-02-14T19:32:31.168Z,2.28
2024-02-14T19:37:34.999Z,2.50
2024-02-14T19:42:38.951Z,2.17
2024-02-14T19:47:43.708Z,2.40
2024-02-14T19:52:47.511Z,2.33
2024-02-14T19:57:51.277Z,2.28
2024-02-14T20:02:56.942Z,2.20
2024-02-14T20:08:00.457Z,1.75
2024-02-14T20:13:04.076Z,2.20
2024-02-14T20:18:12.919Z,1.80
2024-02-14T20:23:17.565Z,2.08
2024-02-14T20:28:26.603Z,2.30
2024-02-14T20:38:36.451Z,2.63
2024-02-14T20:43:40.025Z,2.50
2024-02-14T20:48:44.891Z,2.55
2024-02-14T20:53:49.138Z,2.80
2024-02-14T20:59:01.816Z,2.45
2024-02-14T21:04:11.803Z,2.67
2024-02-14T21:09:15.233Z,2.97
2024-02-14T21:14:19.000Z,3.22
2024-02-14T21:19:23.773Z,2.75
2024-02-14T21:24:27.553Z,3.07
2024-02-14T21:29:31.253Z,2.90
2024-02-14T21:34:35.985Z,3.30
2024-02-14T21:39:39.308Z,2.57
2024-02-14T21:44:43.614Z,3.67
2024-02-14T21:49:48.664Z,3.17
2024-02-14T21:54:51.955Z,3.05
2024-02-14T21:59:55.515Z,2.70
2024-02-14T22:05:02.676Z,3.15
2024-02-14T22:10:08.184Z,3.10
2024-02-14T22:20:17.447Z,3.35
2024-02-14T22:25:21.114Z,3.20
2024-02-14T22:30:25.885Z,3.33
2024-02-14T22:35:31.157Z,3.20
2024-02-14T22:40:36.049Z,3.35
2024-02-14T22:45:40.021Z,4.10
2024-02-14T22:50:45.072Z,3.63
2024-02-14T22:55:50.215Z,3.83
2024-02-14T23:00:53.473Z,3.80
2024-02-14T23:05:58.109Z,3.95
2024-02-14T23:11:01.517Z,4.13
2024-02-14T23:16:06.181Z,4.00
2024-02-14T23:21:13.736Z,4.00
2024-02-14T23:26:17.186Z,3.92
2024-02-14T23:31:22.029Z,3.88
2024-02-14T23:36:28.087Z,4.32
2024-02-14T23:41:32.001Z,4.20
2024-02-14T23:46:35.697Z,4.45
2024-02-14T23:51:40.549Z,3.40
2024-02-14T23:56:48.551Z,3.63
